Time,TemperatureF,DewpointF,PressureIn,WindDirection,WindDirectionDegrees,WindSpeedMPH,WindSpeedGustMPH,Humidity,HourlyPrecipIn,Conditions,Clouds,dailyrainin,SoftwareType,DateUTC
2013-06-11 00:01:00,55.9,20.6,30.23,SW,231,0.0,0.0,25,0.00,,,0.00,WeatherCatV1.12B45,2013-06-11 07:01:00,
2013-06-11 00:06:00,56.5,18.1,30.23,South,179,3.6,3.6,22,0.00,,,0.00,WeatherCatV1.12B45,2013-06-11 07:06:00,
2013-06-11 00:11:00,56.8,18.4,30.23,SSW,201,0.0,0.0,22,0.00,,,0.00,WeatherCatV1.12B45,2013-06-11 07:11:00,
2013-06-11 00:16:00,56.8,18.4,30.23,SW,221,0.0,0.0,22,0.00,,,0.00,WeatherCatV1.12B45,2013-06-11 07:16:00,
2013-06-11 00:21:00,56.7,18.3,30.20,SW,223,0.0,0.0,22,0.00,,,0.00,WeatherCatV1.12B45,2013-06-11 07:21:00,
2013-06-11 00:26:00,55.9,20.6,30.20,SW,223,0.0,0.0,25,0.00,,,0.00,WeatherCatV1.12B45,2013-06-11 07:26:00,
2013-06-11 00:31:00,55.0,20.8,30.20,SW,223,0.0,0.0,26,0.00,,,0.00,WeatherCatV1.12B45,2013-06-11 07:31:00,
2013-06-11 00:36:00,54.1,20.0,30.20,SW,223,0.0,0.0,26,0.00,,,0.00,WeatherCatV1.12B45,2013-06-11 07:36:00,
2013-06-11 00:41:00,53.8,19.7,30.20,SW,223,0.0,0.0,26,0.00,,,0.00,WeatherCatV1.12B45,2013-06-11 07:41:00,
2013-06-11 00:46:00,53.8,19.7,30.20,SW,223,0.0,0.0,26,0.00,,,0.00,WeatherCatV1.12B45,2013-06-11 07:46:00,
2013-06-11 00:51:00,53.8,19.7,30.20,SW,223,0.0,0.0,26,0.00,,,0.00,WeatherCatV1.12B45,2013-06-11 07:51:00,
2013-06-11 00:56:00,53.6,19.6,30.20,SW,223,0.0,0.0,26,0.00,,,0.00,WeatherCatV1.12B45,2013-06-11 07:56:00,
2013-06-11 01:01:00,53.6,19.6,30.20,SW,223,0.0,0.0,26,0.00,,,0.00,WeatherCatV1.12B45,2013-06-11 08:01:00,
2013-06-11 01:06:00,53.6,19.6,30.23,SW,223,0.0,0.0,26,0.00,,,0.00,WeatherCatV1.12B45,2013-06-11 08:06:00,
2013-06-11 01:11:00,53.2,20.1,30.23,SW,223,0.0,0.0,27,0.00,,,0.00,WeatherCatV1.12B45,2013-06-11 08:11:00,
2013-06-11 01:16:00,52.9,19.8,30.23,SW,223,0.0,0.0,27,0.00,,,0.00,WeatherCatV1.12B45,2013-06-11 08:16:00,
2013-06-11 01:21:00,52.3,19.4,30.20,SW,223,0.0,0.0,27,0.00,,,0.00,WeatherCatV1.12B45,2013-06-11 08:21:00,
2013-06-11 01:26:00,52.2,19.2,30.20,SW,223,0.0,0.0,27,0.00,,,0.00,WeatherCatV1.12B45,2013-06-11 08:26:00,
2013-06-11 01:31:00,51.6,20.4,30.20,SW,223,0.0,0.0,29,0.00,,,0.00,WeatherCatV1.12B45,2013-06-11 08:31:00,
2013-06-11 01:36:00,51.4,20.3,30.20,SW,223,0.0,0.0,29,0.00,,,0.00,WeatherCatV1.12B45,2013-06-11 08:36:00,
2013-06-11 01:41:00,51.1,19.9,30.20,SW,223,0.0,0.0,29,0.00,,,0.00,WeatherCatV1.12B45,2013-06-11 08:41:00,
2013-06-11 01:46:00,51.3,19.3,30.20,SW,223,0.0,0.0,28,0.00,,,0.00,WeatherCatV1.12B45,2013-06-11 08:46:00,
2013-06-11 01:51:00,51.6,20.4,30.20,SW,223,0.0,0.0,29,0.00,,,0.00,WeatherCatV1.12B45,2013-06-11 08:51:00,
2013-06-11 01:56:00,51.6,20.4,30.20,SW,223,0.0,0.0,29,0.00,,,0.00,WeatherCatV1.12B45,2013-06-11 08:56:00,
2013-06-11 02:01:00,51.3,21.7,30.20,SW,223,0.0,0.0,31,0.00,,,0.00,WeatherCatV1.12B45,2013-06-11 09:01:00,
2013-06-11 02:06:00,50.7,20.4,30.20,SW,223,0.0,0.0,30,0.00,,,0.00,WeatherCatV1.12B45,2013-06-11 09:06:00,
2013-06-11 02:11:00,50.5,21.0,30.20,SW,223,0.0,0.0,31,0.00,,,0.00,WeatherCatV1.12B45,2013-06-11 09:11:00,
2013-06-11 02:16:00,50.4,22.4,30.20,SW,223,0.0,0.0,33,0.00,,,0.00,WeatherCatV1.12B45,2013-06-11 09:16:00,
2013-06-11 02:21:00,50.0,22.8,30.20,SW,223,0.0,0.0,34,0.00,,,0.00,WeatherCatV1.12B45,2013-06-11 09:21:00,
2013-06-11 02:26:00,49.3,24.8,30.20,SW,223,0.0,0.0,38,0.00,,,0.00,WeatherCatV1.12B45,2013-06-11 09:26:00,
2013-06-11 02:31:00,48.7,24.3,30.20,SW,223,0.0,0.0,38,0.00,,,0.00,WeatherCatV1.12B45,2013-06-11 09:31:00,
2013-06-11 02:36:00,48.4,24.0,30.20,SW,223,0.0,0.0,38,0.00,,,0.00,WeatherCatV1.12B45,2013-06-11 09:36:00,
2013-06-11 02:41:00,48.2,24.4,30.20,SW,223,0.0,0.0,39,0.00,,,0.00,WeatherCatV1.12B45,2013-06-11 09:41:00,
2013-06-11 02:46:00,47.8,24.7,30.20,SW,223,0.0,0.0,40,0.00,,,0.00,WeatherCatV1.12B45,2013-06-11 09:46:00,
2013-06-11 02:51:00,47.7,25.7,30.23,SW,223,0.0,0.0,42,0.00,,,0.00,WeatherCatV1.12B45,2013-06-11 09:51:00,
2013-06-11 02:56:00,47.7,27.9,30.23,SW,223,0.0,0.0,46,0.00,,,0.00,WeatherCatV1.12B45,2013-06-11 09:56:00,
2013-06-11 03:01:00,47.7,27.4,30.23,SW,223,0.0,0.0,45,0.00,,,0.00,WeatherCatV1.12B45,2013-06-11 10:01:00,
2013-06-11 03:06:00,47.3,27.0,30.23,SW,223,0.0,0.0,45,0.00,,,0.00,WeatherCatV1.12B45,2013-06-11 10:06:00,
2013-06-11 03:11:00,47.3,27.6,30.23,SW,223,0.0,0.0,46,0.00,,,0.00,WeatherCatV1.12B45,2013-06-11 10:11:00,
2013-06-11 03:16:00,46.9,27.8,30.23,SW,223,0.0,0.0,47,0.00,,,0.00,WeatherCatV1.12B45,2013-06-11 10:16:00,
2013-06-11 03:21:00,46.8,27.6,30.20,SW,223,0.0,0.0,47,0.00,,,0.00,WeatherCatV1.12B45,2013-06-11 10:21:00,
2013-06-11 03:26:00,46.4,27.8,30.20,SW,223,0.0,0.0,48,0.00,,,0.00,WeatherCatV1.12B45,2013-06-11 10:26:00,
2013-06-11 03:31:00,46.2,28.1,30.20,SW,223,0.0,0.0,49,0.00,,,0.00,WeatherCatV1.12B45,2013-06-11 10:31:00,
2013-06-11 03:36:00,46.0,28.5,30.20,SW,223,0.0,0.0,50,0.00,,,0.00,WeatherCatV1.12B45,2013-06-11 10:36:00,
2013-06-11 03:41:00,46.0,28.9,30.20,SW,223,0.0,0.0,51,0.00,,,0.00,WeatherCatV1.12B45,2013-06-11 10:41:00,
2013-06-11 03:46:00,45.9,28.8,30.20,SW,223,0.0,0.0,51,0.00,,,0.00,WeatherCatV1.12B45,2013-06-11 10:46:00,
2013-06-11 03:51:00,46.0,30.3,30.23,NW,310,0.0,0.0,54,0.00,,,0.00,WeatherCatV1.12B45,2013-06-11 10:51:00,
2013-06-11 03:56:00,46.0,30.8,30.23,NNW,330,0.0,0.0,55,0.00,,,0.00,WeatherCatV1.12B45,2013-06-11 10:56:00,
2013-06-11 04:01:00,45.9,30.2,30.23,NW,306,0.0,0.0,54,0.00,,,0.00,WeatherCatV1.12B45,2013-06-11 11:01:00,
2013-06-11 04:06:00,45.7,30.0,30.23,NW,306,0.0,0.0,54,0.00,,,0.00,WeatherCatV1.12B45,2013-06-11 11:06:00,
2013-06-11 04:11:00,45.7,30.5,30.23,NW,306,0.0,0.0,55,0.00,,,0.00,WeatherCatV1.12B45,2013-06-11 11:11:00,
2013-06-11 04:16:00,45.7,30.5,30.23,WNW,301,0.0,0.0,55,0.00,,,0.00,WeatherCatV1.12B45,2013-06-11 11:16:00,
2013-06-11 04:21:00,45.7,30.9,30.23,WSW,251,0.0,0.0,56,0.00,,,0.00,WeatherCatV1.12B45,2013-06-11 11:21:00,
2013-06-11 04:26:00,45.7,30.5,30.23,WSW,246,0.0,0.0,55,0.00,,,0.00,WeatherCatV1.12B45,2013-06-11 11:26:00,
2013-06-11 04:31:00,45.7,30.9,30.23,South,185,0.0,0.0,56,0.00,,,0.00,WeatherCatV1.12B45,2013-06-11 11:31:00,
2013-06-11 04:36:00,46.6,31.3,30.23,South,187,4.0,4.0,55,0.00,,,0.00,WeatherCatV1.12B45,2013-06-11 11:36:00,
2013-06-11 04:41:00,48.4,29.6,30.23,South,190,5.8,5.8,48,0.00,,,0.00,WeatherCatV1.12B45,2013-06-11 11:41:00,
2013-06-11 04:46:00,49.6,27.5,30.23,SSW,213,3.1,3.1,42,0.00,,,0.00,WeatherCatV1.12B45,2013-06-11 11:46:00,
2013-06-11 04:51:00,50.2,26.8,30.23,SSW,210,5.8,5.8,40,0.00,,,0.00,WeatherCatV1.12B45,2013-06-11 11:51:00,
2013-06-11 04:56:00,50.4,26.4,30.23,South,183,4.0,6.3,39,0.00,,,0.00,WeatherCatV1.12B45,2013-06-11 11:56:00,
2013-06-11 05:01:00,50.2,26.2,30.23,SW,218,2.7,8.1,39,0.00,,,0.00,WeatherCatV1.12B45,2013-06-11 12:01:00,
2013-06-11 05:06:00,49.8,25.9,30.23,SSE,160,4.0,5.8,39,0.00,,,0.00,WeatherCatV1.12B45,2013-06-11 12:06:00,
2013-06-11 05:11:00,49.5,26.2,30.23,SSE,166,3.1,4.9,40,0.00,,,0.00,WeatherCatV1.12B45,2013-06-11 12:11:00,
2013-06-11 05:16:00,49.1,26.4,30.23,NE,35,2.7,3.1,41,0.00,,,0.00,WeatherCatV1.12B45,2013-06-11 12:16:00,
2013-06-11 05:21:00,48.9,26.8,30.26,NE,54,2.2,4.0,42,0.00,,,0.00,WeatherCatV1.12B45,2013-06-11 12:21:00,
2013-06-11 05:26:00,48.7,26.1,30.26,ESE,118,3.1,3.6,41,0.00,,,0.00,WeatherCatV1.12B45,2013-06-11 12:26:00,
2013-06-11 05:31:00,48.7,26.7,30.26,NE,45,4.0,4.0,42,0.00,,,0.00,WeatherCatV1.12B45,2013-06-11 12:31:00,
2013-06-11 05:36:00,48.9,27.4,30.26,ENE,76,0.0,0.0,43,0.00,,,0.00,WeatherCatV1.12B45,2013-06-11 12:36:00,
2013-06-11 05:41:00,48.7,27.8,30.26,ENE,76,0.0,0.0,44,0.00,,,0.00,WeatherCatV1.12B45,2013-06-11 12:41:00,
2013-06-11 05:46:00,48.6,28.2,30.26,ENE,76,0.0,0.0,45,0.00,,,0.00,WeatherCatV1.12B45,2013-06-11 12:46:00,
2013-06-11 05:51:00,48.4,28.6,30.26,ENE,64,0.0,0.0,46,0.00,,,0.00,WeatherCatV1.12B45,2013-06-11 12:51:00,
2013-06-11 05:56:00,48.7,28.9,30.26,NE,54,0.0,0.0,46,0.00,,,0.00,WeatherCatV1.12B45,2013-06-11 12:56:00,
2013-06-11 06:01:00,48.7,27.8,30.26,NE,41,0.0,3.1,44,0.00,,,0.00,WeatherCatV1.12B45,2013-06-11 13:01:00,
2013-06-11 06:06:00,49.1,28.7,30.26,ESE,110,3.1,5.8,45,0.00,,,0.00,WeatherCatV1.12B45,2013-06-11 13:06:00,
2013-06-11 06:11:00,49.1,28.1,30.26,ESE,113,2.2,4.5,44,0.00,,,0.00,WeatherCatV1.12B45,2013-06-11 13:11:00,
2013-06-11 06:16:00,49.3,27.7,30.26,East,90,0.0,0.0,43,0.00,,,0.00,WeatherCatV1.12B45,2013-06-11 13:16:00,
2013-06-11 06:21:00,49.5,28.5,30.26,ESE,120,2.7,4.0,44,0.00,,,0.00,WeatherCatV1.12B45,2013-06-11 13:21:00,
2013-06-11 06:26:00,49.8,28.8,30.26,SW,214,2.7,5.4,44,0.00,,,0.00,WeatherCatV1.12B45,2013-06-11 13:26:00,
2013-06-11 06:31:00,50.2,28.0,30.26,WSW,237,0.0,4.0,42,0.00,,,0.00,WeatherCatV1.12B45,2013-06-11 13:31:00,
2013-06-11 06:36:00,50.4,28.1,30.26,SSE,147,0.0,2.7,42,0.00,,,0.00,WeatherCatV1.12B45,2013-06-11 13:36:00,
2013-06-11 06:41:00,50.4,28.1,30.26,ESE,123,4.0,4.9,42,0.00,,,0.00,WeatherCatV1.12B45,2013-06-11 13:41:00,
2013-06-11 06:46:00,51.4,28.5,30.26,WSW,244,2.2,4.0,41,0.00,,,0.00,WeatherCatV1.12B45,2013-06-11 13:46:00,
2013-06-11 06:51:00,51.8,28.9,30.26,East,86,0.0,0.0,41,0.00,,,0.00,WeatherCatV1.12B45,2013-06-11 13:51:00,
2013-06-11 06:56:00,52.0,29.0,30.26,SW,222,0.0,4.0,41,0.00,,,0.00,WeatherCatV1.12B45,2013-06-11 13:56:00,
2013-06-11 07:01:00,52.7,29.7,30.29,East,94,3.1,3.1,41,0.00,,,0.00,WeatherCatV1.12B45,2013-06-11 14:01:00,
2013-06-11 07:06:00,54.3,29.3,30.29,ENE,74,0.0,0.0,38,0.00,,,0.00,WeatherCatV1.12B45,2013-06-11 14:06:00,
2013-06-11 07:11:00,55.8,30.5,30.29,South,178,0.0,5.4,38,0.00,,,0.00,WeatherCatV1.12B45,2013-06-11 14:11:00,
2013-06-11 07:16:00,55.4,29.6,30.29,ESE,119,5.4,5.4,37,0.00,,,0.00,WeatherCatV1.12B45,2013-06-11 14:16:00,
2013-06-11 07:21:00,55.8,29.9,30.29,East,81,5.4,5.4,37,0.00,,,0.00,WeatherCatV1.12B45,2013-06-11 14:21:00,
2013-06-11 07:26:00,55.8,29.9,30.29,WSW,245,0.0,3.1,37,0.00,,,0.00,WeatherCatV1.12B45,2013-06-11 14:26:00,
2013-06-11 07:31:00,57.6,31.5,30.29,East,95,3.6,3.6,37,0.00,,,0.00,WeatherCatV1.12B45,2013-06-11 14:31:00,
2013-06-11 07:36:00,62.8,33.2,30.29,SE,132,0.0,2.7,33,0.00,,,0.00,WeatherCatV1.12B45,2013-06-11 14:36:00,
2013-06-11 07:41:00,66.4,34.8,30.29,ESE,123,4.5,6.3,31,0.00,,,0.00,WeatherCatV1.12B45,2013-06-11 14:41:00,
2013-06-11 07:46:00,68.2,32.0,30.29,ESE,117,5.8,5.8,26,0.00,,,0.00,WeatherCatV1.12B45,2013-06-11 14:46:00,
2013-06-11 07:51:00,70.7,34.1,30.29,ESE,113,0.0,6.7,26,0.00,,,0.00,WeatherCatV1.12B45,2013-06-11 14:51:00,
2013-06-11 07:56:00,70.5,32.0,30.29,SSE,163,3.1,5.8,24,0.00,,,0.00,WeatherCatV1.12B45,2013-06-11 14:56:00,
2013-06-11 08:01:00,66.6,28.6,30.29,SSW,202,0.0,0.0,24,0.00,,,0.00,WeatherCatV1.12B45,2013-06-11 15:01:00,
2013-06-11 08:06:00,64.4,28.8,30.29,ESE,104,5.8,5.8,26,0.00,,,0.00,WeatherCatV1.12B45,2013-06-11 15:06:00,
2013-06-11 08:11:00,63.5,28.9,30.29,South,186,0.0,6.3,27,0.00,,,0.00,WeatherCatV1.12B45,2013-06-11 15:11:00,
2013-06-11 08:16:00,66.0,31.1,30.29,ESE,103,4.0,9.2,27,0.00,,,0.00,WeatherCatV1.12B45,2013-06-11 15:16:00,
2013-06-11 08:21:00,65.5,28.7,30.29,South,181,2.7,7.6,25,0.00,,,0.00,WeatherCatV1.12B45,2013-06-11 15:21:00,
2013-06-11 08:26:00,67.8,30.7,30.29,SE,139,2.7,5.8,25,0.00,,,0.00,WeatherCatV1.12B45,2013-06-11 15:26:00,
2013-06-11 08:31:00,69.6,32.2,30.29,ESE,116,6.3,11.0,25,0.00,,,0.00,WeatherCatV1.12B45,2013-06-11 15:31:00,
2013-06-11 08:36:00,68.9,31.6,30.29,SE,126,6.3,6.3,25,0.00,,,0.00,WeatherCatV1.12B45,2013-06-11 15:36:00,
2013-06-11 08:41:00,69.3,30.9,30.29,ESE,111,5.4,6.3,24,0.00,,,0.00,WeatherCatV1.12B45,2013-06-11 15:41:00,
2013-06-11 08:46:00,73.0,34.1,30.29,ESE,114,12.8,13.2,24,0.00,,,0.00,WeatherCatV1.12B45,2013-06-11 15:46:00,
2013-06-11 08:51:00,75.2,33.7,30.29,ESE,109,4.0,4.9,22,0.00,,,0.00,WeatherCatV1.12B45,2013-06-11 15:51:00,
2013-06-11 08:56:00,76.3,33.5,30.29,SE,141,0.0,0.0,21,0.00,,,0.00,WeatherCatV1.12B45,2013-06-11 15:56:00,
2013-06-11 09:01:00,75.6,32.9,30.29,East,91,0.0,6.3,21,0.00,,,0.00,WeatherCatV1.12B45,2013-06-11 16:01:00,
2013-06-11 09:06:00,75.6,32.9,30.32,SSE,152,2.7,4.9,21,0.00,,,0.00,WeatherCatV1.12B45,2013-06-11 16:06:00,
2013-06-11 09:11:00,76.5,33.6,30.32,SE,126,0.0,2.2,21,0.00,,,0.00,WeatherCatV1.12B45,2013-06-11 16:11:00,
2013-06-11 09:16:00,78.1,35.0,30.29,SSE,147,0.0,7.6,21,0.00,,,0.00,WeatherCatV1.12B45,2013-06-11 16:16:00,
2013-06-11 09:21:00,77.5,33.3,30.29,ESE,119,3.1,3.1,20,0.00,,,0.00,WeatherCatV1.12B45,2013-06-11 16:21:00,
2013-06-11 09:26:00,77.7,34.7,30.29,SW,233,0.0,3.6,21,0.00,,,0.00,WeatherCatV1.12B45,2013-06-11 16:26:00,
2013-06-11 09:31:00,77.9,33.6,30.32,SW,214,0.0,7.6,20,0.00,,,0.00,WeatherCatV1.12B45,2013-06-11 16:31:00,
2013-06-11 09:36:00,78.8,34.3,30.32,South,190,0.0,9.6,20,0.00,,,0.00,WeatherCatV1.12B45,2013-06-11 16:36:00,
2013-06-11 09:41:00,78.4,34.0,30.32,ESE,116,2.2,8.7,20,0.00,,,0.00,WeatherCatV1.12B45,2013-06-11 16:41:00,
2013-06-11 09:46:00,78.4,31.4,30.32,SSE,167,0.0,3.6,18,0.00,,,0.00,WeatherCatV1.12B45,2013-06-11 16:46:00,
2013-06-11 09:51:00,76.1,33.3,30.32,ENE,77,0.0,3.6,21,0.00,,,0.00,WeatherCatV1.12B45,2013-06-11 16:51:00,
2013-06-11 09:56:00,71.8,30.9,30.32,SE,136,5.8,9.6,22,0.00,,,0.00,WeatherCatV1.12B45,2013-06-11 16:56:00,
2013-06-11 10:01:00,68.5,29.3,30.32,West,269,0.0,5.4,23,0.00,,,0.00,WeatherCatV1.12B45,2013-06-11 17:01:00,
2013-06-11 10:06:00,67.6,29.6,30.32,South,183,0.0,4.9,24,0.00,,,0.00,WeatherCatV1.12B45,2013-06-11 17:06:00,
2013-06-11 10:11:00,67.3,29.3,30.32,NNE,30,0.0,2.7,24,0.00,,,0.00,WeatherCatV1.12B45,2013-06-11 17:11:00,
2013-06-11 10:16:00,66.9,28.9,30.32,South,182,4.0,6.3,24,0.00,,,0.00,WeatherCatV1.12B45,2013-06-11 17:16:00,
2013-06-11 10:21:00,67.1,29.1,30.32,WSW,248,0.0,10.1,24,0.00,,,0.00,WeatherCatV1.12B45,2013-06-11 17:21:00,
2013-06-11 10:27:00,66.9,29.9,30.32,East,101,3.6,4.9,25,0.00,,,0.00,WeatherCatV1.12B45,2013-06-11 17:27:00,
2013-06-11 10:32:00,66.7,28.8,30.32,NE,48,0.0,5.4,24,0.00,,,0.00,WeatherCatV1.12B45,2013-06-11 17:32:00,
2013-06-11 10:37:00,66.4,29.5,30.32,South,184,2.7,3.1,25,0.00,,,0.00,WeatherCatV1.12B45,2013-06-11 17:37:00,
2013-06-11 10:42:00,67.3,31.2,30.32,SSW,207,0.0,3.6,26,0.00,,,0.00,WeatherCatV1.12B45,2013-06-11 17:42:00,
2013-06-11 10:47:00,71.6,32.9,30.32,ESE,104,5.8,5.8,24,0.00,,,0.00,WeatherCatV1.12B45,2013-06-11 17:47:00,
2013-06-11 10:52:00,75.6,34.0,30.32,South,171,3.6,4.5,22,0.00,,,0.00,WeatherCatV1.12B45,2013-06-11 17:52:00,
2013-06-11 10:57:00,72.3,31.3,30.32,South,173,3.6,7.6,22,0.00,,,0.00,WeatherCatV1.12B45,2013-06-11 17:57:00,
2013-06-11 11:02:00,68.4,29.1,30.32,East,91,0.0,8.1,23,0.00,,,0.00,WeatherCatV1.12B45,2013-06-11 18:02:00,
2013-06-11 11:07:00,66.7,28.8,30.32,SSW,199,3.6,5.8,24,0.00,,,0.00,WeatherCatV1.12B45,2013-06-11 18:07:00,
2013-06-11 11:12:00,66.4,28.5,30.32,South,174,0.0,4.0,24,0.00,,,0.00,WeatherCatV1.12B45,2013-06-11 18:12:00,
2013-06-11 11:17:00,67.3,30.3,30.29,NNE,25,0.0,3.1,25,0.00,,,0.00,WeatherCatV1.12B45,2013-06-11 18:17:00,
2013-06-11 11:22:00,67.8,29.7,30.29,SSE,159,3.6,5.4,24,0.00,,,0.00,WeatherCatV1.12B45,2013-06-11 18:22:00,
2013-06-11 11:27:00,67.5,29.4,30.29,ESE,118,6.3,6.3,24,0.00,,,0.00,WeatherCatV1.12B45,2013-06-11 18:27:00,
2013-06-11 11:32:00,68.4,30.2,30.32,WSW,250,5.4,5.4,24,0.00,,,0.00,WeatherCatV1.12B45,2013-06-11 18:32:00,
2013-06-11 11:37:00,67.6,29.6,30.32,SSW,196,0.0,4.0,24,0.00,,,0.00,WeatherCatV1.12B45,2013-06-11 18:37:00,
2013-06-11 11:42:00,67.6,29.6,30.32,NW,318,2.7,4.9,24,0.00,,,0.00,WeatherCatV1.12B45,2013-06-11 18:42:00,
2013-06-11 11:47:00,68.0,28.8,30.32,NNE,22,2.2,6.3,23,0.00,,,0.00,WeatherCatV1.12B45,2013-06-11 18:47:00,
2013-06-11 11:52:00,67.8,28.7,30.32,NNE,16,3.6,6.3,23,0.00,,,0.00,WeatherCatV1.12B45,2013-06-11 18:52:00,
2013-06-11 11:57:00,67.8,29.7,30.32,ESE,120,4.9,7.6,24,0.00,,,0.00,WeatherCatV1.12B45,2013-06-11 18:57:00,
2013-06-11 12:02:00,68.0,29.9,30.29,SSE,153,0.0,3.6,24,0.00,,,0.00,WeatherCatV1.12B45,2013-06-11 19:02:00,
2013-06-11 12:07:00,68.4,29.1,30.29,ENE,62,0.0,0.0,23,0.00,,,0.00,WeatherCatV1.12B45,2013-06-11 19:07:00,
2013-06-11 12:12:00,68.7,30.5,30.29,SSW,199,0.0,8.1,24,0.00,,,0.00,WeatherCatV1.12B45,2013-06-11 19:12:00,
2013-06-11 12:17:00,69.6,30.2,30.32,South,191,2.7,4.0,23,0.00,,,0.00,WeatherCatV1.12B45,2013-06-11 19:17:00,
2013-06-11 12:22:00,68.9,28.5,30.32,WSW,249,0.0,2.2,22,0.00,,,0.00,WeatherCatV1.12B45,2013-06-11 19:22:00,
2013-06-11 12:27:00,68.2,27.9,30.32,West,267,2.7,8.1,22,0.00,,,0.00,WeatherCatV1.12B45,2013-06-11 19:27:00,
2013-06-11 12:32:00,68.4,29.1,30.32,SW,214,2.7,6.3,23,0.00,,,0.00,WeatherCatV1.12B45,2013-06-11 19:32:00,
2013-06-11 12:37:00,68.9,28.5,30.32,East,84,0.0,6.3,22,0.00,,,0.00,WeatherCatV1.12B45,2013-06-11 19:37:00,
2013-06-11 12:42:00,68.9,28.5,30.32,WSW,258,3.1,4.0,22,0.00,,,0.00,WeatherCatV1.12B45,2013-06-11 19:42:00,
2013-06-11 12:47:00,69.1,28.6,30.32,WNW,292,0.0,0.0,22,0.00,,,0.00,WeatherCatV1.12B45,2013-06-11 19:47:00,
2013-06-11 12:52:00,69.6,29.1,30.32,WSW,239,8.1,8.1,22,0.00,,,0.00,WeatherCatV1.12B45,2013-06-11 19:52:00,
2013-06-11 12:57:00,70.2,29.5,30.32,SSE,156,0.0,7.2,22,0.00,,,0.00,WeatherCatV1.12B45,2013-06-11 19:57:00,
2013-06-11 13:02:00,70.0,29.4,30.32,East,81,2.2,2.7,22,0.00,,,0.00,WeatherCatV1.12B45,2013-06-11 20:02:00,
2013-06-11 13:07:00,70.2,29.5,30.32,ENE,65,2.7,6.3,22,0.00,,,0.00,WeatherCatV1.12B45,2013-06-11 20:07:00,
2013-06-11 13:12:00,70.2,29.5,30.32,WSW,248,0.0,5.8,22,0.00,,,0.00,WeatherCatV1.12B45,2013-06-11 20:12:00,
2013-06-11 13:17:00,70.3,29.7,30.32,West,267,4.0,8.1,22,0.00,,,0.00,WeatherCatV1.12B45,2013-06-11 20:17:00,
2013-06-11 13:22:00,70.5,26.3,30.32,North,357,3.1,4.0,19,0.00,,,0.00,WeatherCatV1.12B45,2013-06-11 20:22:00,
2013-06-11 13:27:00,70.9,30.1,30.32,SW,228,5.4,5.4,22,0.00,,,0.00,WeatherCatV1.12B45,2013-06-11 20:27:00,
2013-06-11 13:32:00,70.9,26.6,30.32,SW,235,4.0,6.3,19,0.00,,,0.00,WeatherCatV1.12B45,2013-06-11 20:32:00,
2013-06-11 13:37:00,71.1,30.3,30.32,West,272,0.0,3.6,22,0.00,,,0.00,WeatherCatV1.12B45,2013-06-11 20:37:00,
2013-06-11 13:42:00,70.9,30.1,30.32,SSW,196,4.0,6.3,22,0.00,,,0.00,WeatherCatV1.12B45,2013-06-11 20:42:00,
2013-06-11 13:47:00,70.7,26.4,30.32,SSW,208,5.4,5.4,19,0.00,,,0.00,WeatherCatV1.12B45,2013-06-11 20:47:00,
2013-06-11 13:52:00,71.1,26.7,30.32,NE,55,0.0,0.0,19,0.00,,,0.00,WeatherCatV1.12B45,2013-06-11 20:52:00,
2013-06-11 13:57:00,71.8,27.3,30.32,WSW,255,2.7,3.6,19,0.00,,,0.00,WeatherCatV1.12B45,2013-06-11 20:57:00,
2013-06-11 14:02:00,72.7,28.0,30.32,SE,135,2.2,5.8,19,0.00,,,0.00,WeatherCatV1.12B45,2013-06-11 21:02:00,
2013-06-11 14:07:00,72.7,28.0,30.32,SSE,166,3.6,9.6,19,0.00,,,0.00,WeatherCatV1.12B45,2013-06-11 21:07:00,
2013-06-11 14:12:00,71.8,23.2,30.32,SSE,155,4.0,5.4,16,0.00,,,0.00,WeatherCatV1.12B45,2013-06-11 21:12:00,
2013-06-11 14:17:00,70.7,23.8,30.32,ESE,117,3.6,5.4,17,0.00,,,0.00,WeatherCatV1.12B45,2013-06-11 21:17:00,
2013-06-11 14:22:00,71.8,23.2,30.32,NNW,346,0.0,4.0,16,0.00,,,0.00,WeatherCatV1.12B45,2013-06-11 21:22:00,
2013-06-11 14:27:00,73.4,24.5,30.32,WNW,301,5.4,6.7,16,0.00,,,0.00,WeatherCatV1.12B45,2013-06-11 21:27:00,
2013-06-11 14:32:00,75.7,24.8,30.32,West,260,2.7,8.1,15,0.00,,,0.00,WeatherCatV1.12B45,2013-06-11 21:32:00,
2013-06-11 14:37:00,76.6,25.5,30.32,ESE,120,2.7,3.1,15,0.00,,,0.00,WeatherCatV1.12B45,2013-06-11 21:37:00,
2013-06-11 14:42:00,77.7,26.4,30.32,SSW,206,4.9,5.8,15,0.00,,,0.00,WeatherCatV1.12B45,2013-06-11 21:42:00,
2013-06-11 14:47:00,76.5,22.0,30.32,South,187,6.3,6.3,13,0.00,,,0.00,WeatherCatV1.12B45,2013-06-11 21:47:00,
2013-06-11 14:52:00,77.9,23.1,30.32,SE,137,6.3,6.3,13,0.00,,,0.00,WeatherCatV1.12B45,2013-06-11 21:52:00,
2013-06-11 14:57:00,79.0,22.0,30.32,West,272,0.0,5.8,12,0.00,,,0.00,WeatherCatV1.12B45,2013-06-11 21:57:00,
2013-06-11 15:02:00,79.9,22.7,30.32,South,183,3.1,10.5,12,0.00,,,0.00,WeatherCatV1.12B45,2013-06-11 22:02:00,
2013-06-11 15:07:00,78.4,17.4,30.32,SSW,198,8.1,8.1,10,0.00,,,0.00,WeatherCatV1.12B45,2013-06-11 22:07:00,
2013-06-11 15:12:00,76.6,16.0,30.32,NNW,330,3.6,9.6,10,0.00,,,0.00,WeatherCatV1.12B45,2013-06-11 22:12:00,
2013-06-11 15:17:00,77.0,16.3,30.32,East,94,4.0,4.0,10,0.00,,,0.00,WeatherCatV1.12B45,2013-06-11 22:17:00,
2013-06-11 15:22:00,77.0,16.3,30.32,South,191,10.1,10.1,10,0.00,,,0.00,WeatherCatV1.12B45,2013-06-11 22:22:00,
2013-06-11 15:27:00,77.9,17.0,30.32,WSW,237,2.7,8.1,10,0.00,,,0.00,WeatherCatV1.12B45,2013-06-11 22:27:00,
2013-06-11 15:32:00,79.2,17.9,30.32,ESE,117,4.0,7.6,10,0.00,,,0.00,WeatherCatV1.12B45,2013-06-11 22:32:00,
2013-06-11 15:37:00,78.8,17.6,30.32,South,184,2.7,8.3,10,0.00,,,0.00,WeatherCatV1.12B45,2013-06-11 22:37:00,
2013-06-11 15:42:00,77.9,17.0,30.32,East,101,2.7,5.8,10,0.00,,,0.00,WeatherCatV1.12B45,2013-06-11 22:42:00,
2013-06-11 15:47:00,77.5,16.7,30.35,West,266,4.0,5.4,10,0.00,,,0.00,WeatherCatV1.12B45,2013-06-11 22:47:00,
2013-06-11 15:52:00,77.7,16.8,30.35,SSW,194,3.6,11.0,10,0.00,,,0.00,WeatherCatV1.12B45,2013-06-11 22:52:00,
2013-06-11 15:57:00,76.1,15.6,30.35,South,169,3.6,5.4,10,0.00,,,0.00,WeatherCatV1.12B45,2013-06-11 22:57:00,
2013-06-11 16:02:00,75.9,15.4,30.35,NW,314,2.7,4.9,10,0.00,,,0.00,WeatherCatV1.12B45,2013-06-11 23:02:00,
2013-06-11 16:07:00,75.7,15.3,30.35,WNW,292,3.6,10.5,10,0.00,,,0.00,WeatherCatV1.12B45,2013-06-11 23:07:00,
2013-06-11 16:12:00,74.8,16.8,30.35,SE,145,3.1,6.3,11,0.00,,,0.00,WeatherCatV1.12B45,2013-06-11 23:12:00,
2013-06-11 16:17:00,73.2,15.6,30.35,SE,134,3.1,8.7,11,0.00,,,0.00,WeatherCatV1.12B45,2013-06-11 23:17:00,
2013-06-11 16:22:00,71.6,14.3,30.35,SW,222,0.0,5.8,11,0.00,,,0.00,WeatherCatV1.12B45,2013-06-11 23:22:00,
2013-06-11 16:27:00,70.5,15.5,30.35,ESE,112,4.9,9.6,12,0.00,,,0.00,WeatherCatV1.12B45,2013-06-11 23:27:00,
2013-06-11 16:32:00,68.7,14.1,30.35,South,172,4.9,8.7,12,0.00,,,0.00,WeatherCatV1.12B45,2013-06-11 23:32:00,
2013-06-11 16:37:00,67.5,13.1,30.35,West,261,2.7,7.6,12,0.00,,,0.00,WeatherCatV1.12B45,2013-06-11 23:37:00,
2013-06-11 16:42:00,67.5,13.1,30.35,ENE,60,4.0,4.9,12,0.00,,,0.00,WeatherCatV1.12B45,2013-06-11 23:42:00,
2013-06-11 16:47:00,68.0,13.5,30.35,SE,138,2.7,5.8,12,0.00,,,0.00,WeatherCatV1.12B45,2013-06-11 23:47:00,
2013-06-11 16:52:00,68.4,13.8,30.35,WSW,245,2.7,4.0,12,0.00,,,0.00,WeatherCatV1.12B45,2013-06-11 23:52:00,
2013-06-11 16:57:00,68.7,14.1,30.35,WSW,247,4.0,4.0,12,0.00,,,0.00,WeatherCatV1.12B45,2013-06-11 23:57:00,
2013-06-11 17:02:00,68.7,14.1,30.35,SSE,154,0.0,5.4,12,0.00,,,0.00,WeatherCatV1.12B45,2013-06-12 00:02:00,
2013-06-11 17:07:00,69.4,14.6,30.35,SE,134,3.1,3.6,12,0.00,,,0.00,WeatherCatV1.12B45,2013-06-12 00:07:00,
2013-06-11 17:12:00,70.2,15.2,30.35,SSE,155,4.0,4.0,12,0.00,,,0.00,WeatherCatV1.12B45,2013-06-12 00:12:00,
2013-06-11 17:17:00,69.8,18.5,30.35,South,174,3.6,5.4,14,0.00,,,0.00,WeatherCatV1.12B45,2013-06-12 00:17:00,
2013-06-11 17:22:00,69.3,19.6,30.35,ESE,120,5.8,12.3,15,0.00,,,0.00,WeatherCatV1.12B45,2013-06-12 00:22:00,
2013-06-11 17:27:00,68.5,13.9,30.35,SE,124,7.2,13.6,12,0.00,,,0.00,WeatherCatV1.12B45,2013-06-12 00:27:00,
2013-06-11 17:32:00,68.0,13.5,30.35,SW,214,5.4,8.3,12,0.00,,,0.00,WeatherCatV1.12B45,2013-06-12 00:32:00,
2013-06-11 17:37:00,68.0,13.5,30.35,SSW,194,5.4,9.6,12,0.00,,,0.00,WeatherCatV1.12B45,2013-06-12 00:37:00,
2013-06-11 17:42:00,67.8,13.4,30.35,SE,132,3.1,8.7,12,0.00,,,0.00,WeatherCatV1.12B45,2013-06-12 00:42:00,
2013-06-11 17:47:00,67.1,12.8,30.35,East,90,0.0,3.6,12,0.00,,,0.00,WeatherCatV1.12B45,2013-06-12 00:47:00,
2013-06-11 17:52:00,66.4,12.2,30.35,SSW,192,2.2,5.8,12,0.00,,,0.00,WeatherCatV1.12B45,2013-06-12 00:52:00,
2013-06-11 17:57:00,65.7,13.5,30.35,SSW,194,3.6,7.6,13,0.00,,,0.00,WeatherCatV1.12B45,2013-06-12 00:57:00,
2013-06-11 18:02:00,65.1,13.1,30.35,ESE,122,3.1,3.1,13,0.00,,,0.00,WeatherCatV1.12B45,2013-06-12 01:02:00,
2013-06-11 18:07:00,64.8,12.8,30.35,NW,313,0.0,3.6,13,0.00,,,0.00,WeatherCatV1.12B45,2013-06-12 01:07:00,
2013-06-11 18:12:00,64.4,12.5,30.35,SW,234,0.0,4.0,13,0.00,,,0.00,WeatherCatV1.12B45,2013-06-12 01:12:00,
2013-06-11 18:17:00,64.2,12.4,30.35,West,272,4.0,4.9,13,0.00,,,0.00,WeatherCatV1.12B45,2013-06-12 01:17:00,
2013-06-11 18:22:00,64.2,12.4,30.35,SE,133,2.2,2.7,13,0.00,,,0.00,WeatherCatV1.12B45,2013-06-12 01:22:00,
2013-06-11 18:27:00,63.9,12.1,30.35,SSW,198,0.0,5.4,13,0.00,,,0.00,WeatherCatV1.12B45,2013-06-12 01:27:00,
2013-06-11 18:32:00,63.5,11.8,30.35,WSW,250,3.1,6.3,13,0.00,,,0.00,WeatherCatV1.12B45,2013-06-12 01:32:00,
2013-06-11 18:37:00,63.7,11.9,30.35,SSE,167,3.1,3.6,13,0.00,,,0.00,WeatherCatV1.12B45,2013-06-12 01:37:00,
2013-06-11 18:42:00,63.7,11.9,30.35,WSW,246,0.0,4.0,13,0.00,,,0.00,WeatherCatV1.12B45,2013-06-12 01:42:00,
2013-06-11 18:47:00,63.1,11.5,30.35,ESE,105,3.6,4.0,13,0.00,,,0.00,WeatherCatV1.12B45,2013-06-12 01:47:00,
2013-06-11 18:52:00,63.0,11.4,30.35,WSW,256,4.0,4.0,13,0.00,,,0.00,WeatherCatV1.12B45,2013-06-12 01:52:00,
2013-06-11 18:57:00,62.8,11.2,30.35,SSE,149,5.8,6.3,13,0.00,,,0.00,WeatherCatV1.12B45,2013-06-12 01:57:00,
2013-06-11 19:02:00,62.6,11.1,30.35,South,171,2.2,2.7,13,0.00,,,0.00,WeatherCatV1.12B45,2013-06-12 02:02:00,
2013-06-11 19:07:00,62.4,12.6,30.35,South,181,2.7,11.9,14,0.00,,,0.00,WeatherCatV1.12B45,2013-06-12 02:07:00,
2013-06-11 19:12:00,62.2,12.5,30.35,ESE,113,0.0,3.6,14,0.00,,,0.00,WeatherCatV1.12B45,2013-06-12 02:12:00,
2013-06-11 19:17:00,62.1,12.3,30.35,East,96,0.0,2.7,14,0.00,,,0.00,WeatherCatV1.12B45,2013-06-12 02:17:00,
2013-06-11 19:23:00,61.9,12.2,30.35,SSW,204,0.0,3.1,14,0.00,,,0.00,WeatherCatV1.12B45,2013-06-12 02:23:00,
2013-06-11 19:28:00,61.7,12.0,30.35,South,185,2.2,6.3,14,0.00,,,0.00,WeatherCatV1.12B45,2013-06-12 02:28:00,
2013-06-11 19:33:00,61.5,11.9,30.35,SW,233,0.0,4.0,14,0.00,,,0.00,WeatherCatV1.12B45,2013-06-12 02:33:00,
2013-06-11 19:36:00,61.5,11.9,30.35,WSW,247,0.0,4.9,14,0.00,,,0.00,WeatherCatV1.12B45,2013-06-12 02:36:00,
2013-06-11 19:41:00,61.5,11.9,30.35,SSE,157,2.7,5.8,14,0.00,,,0.00,WeatherCatV1.12B45,2013-06-12 02:41:00,
2013-06-11 19:46:00,61.2,11.6,30.35,SW,218,0.0,0.0,14,0.00,,,0.00,WeatherCatV1.12B45,2013-06-12 02:46:00,
2013-06-11 19:51:00,61.0,11.5,30.35,South,179,0.0,3.6,14,0.00,,,0.00,WeatherCatV1.12B45,2013-06-12 02:51:00,
2013-06-11 19:56:00,61.0,11.5,30.35,South,177,0.0,3.1,14,0.00,,,0.00,WeatherCatV1.12B45,2013-06-12 02:56:00,
2013-06-11 20:01:00,60.6,15.6,30.35,South,186,0.0,2.7,17,0.00,,,0.00,WeatherCatV1.12B45,2013-06-12 03:01:00,
2013-06-11 20:06:00,60.6,11.2,30.35,South,181,0.0,0.0,14,0.00,,,0.00,WeatherCatV1.12B45,2013-06-12 03:06:00,
2013-06-11 20:11:00,60.6,11.2,30.35,South,170,0.0,2.2,14,0.00,,,0.00,WeatherCatV1.12B45,2013-06-12 03:11:00,
2013-06-11 20:16:00,60.4,15.4,30.38,ENE,72,0.0,2.2,17,0.00,,,0.00,WeatherCatV1.12B45,2013-06-12 03:16:00,
2013-06-11 20:21:00,60.4,15.4,30.38,SSW,195,3.1,5.8,17,0.00,,,0.00,WeatherCatV1.12B45,2013-06-12 03:21:00,
2013-06-11 20:26:00,60.4,15.4,30.38,SSE,157,0.0,3.6,17,0.00,,,0.00,WeatherCatV1.12B45,2013-06-12 03:26:00,
2013-06-11 20:31:00,60.1,15.1,30.38,SE,135,0.0,0.0,17,0.00,,,0.00,WeatherCatV1.12B45,2013-06-12 03:31:00,
2013-06-11 20:36:00,59.7,14.8,30.38,ESE,118,3.6,3.6,17,0.00,,,0.00,WeatherCatV1.12B45,2013-06-12 03:36:00,
2013-06-11 20:41:00,59.5,14.7,30.38,ESE,106,6.3,6.3,17,0.00,,,0.00,WeatherCatV1.12B45,2013-06-12 03:41:00,
2013-06-11 20:46:00,59.4,17.1,30.38,South,185,0.0,8.7,19,0.00,,,0.00,WeatherCatV1.12B45,2013-06-12 03:46:00,
2013-06-11 20:51:00,59.4,17.1,30.38,South,174,3.1,5.4,19,0.00,,,0.00,WeatherCatV1.12B45,2013-06-12 03:51:00,
2013-06-11 20:56:00,59.2,17.0,30.38,East,96,6.3,6.3,19,0.00,,,0.00,WeatherCatV1.12B45,2013-06-12 03:56:00,
2013-06-11 21:01:00,59.0,20.2,30.38,SE,142,0.0,4.0,22,0.00,,,0.00,WeatherCatV1.12B45,2013-06-12 04:01:00,
2013-06-11 21:06:00,58.6,19.9,30.38,WSW,250,0.0,4.9,22,0.00,,,0.00,WeatherCatV1.12B45,2013-06-12 04:06:00,
2013-06-11 21:11:00,58.5,21.8,30.38,SSE,163,0.0,4.9,24,0.00,,,0.00,WeatherCatV1.12B45,2013-06-12 04:11:00,
2013-06-11 21:16:00,58.1,21.5,30.38,SSW,211,3.1,3.6,24,0.00,,,0.00,WeatherCatV1.12B45,2013-06-12 04:16:00,
2013-06-11 21:21:00,57.9,21.4,30.38,ESE,122,0.0,3.6,24,0.00,,,0.00,WeatherCatV1.12B45,2013-06-12 04:21:00,
2013-06-11 21:26:00,57.7,21.2,30.38,SE,129,0.0,0.0,24,0.00,,,0.00,WeatherCatV1.12B45,2013-06-12 04:26:00,
2013-06-11 21:31:00,57.6,22.0,30.38,South,182,0.0,0.0,25,0.00,,,0.00,WeatherCatV1.12B45,2013-06-12 04:31:00,
2013-06-11 21:36:00,57.6,22.0,30.38,South,185,4.0,4.0,25,0.00,,,0.00,WeatherCatV1.12B45,2013-06-12 04:36:00,
2013-06-11 21:41:00,57.4,21.9,30.38,ENE,65,0.0,2.7,25,0.00,,,0.00,WeatherCatV1.12B45,2013-06-12 04:41:00,
2013-06-11 21:46:00,57.2,21.7,30.38,SW,229,0.0,0.0,25,0.00,,,0.00,WeatherCatV1.12B45,2013-06-12 04:46:00,
2013-06-11 21:51:00,56.7,22.2,30.41,WSW,246,0.0,0.0,26,0.00,,,0.00,WeatherCatV1.12B45,2013-06-12 04:51:00,
2013-06-11 21:56:00,56.3,21.9,30.41,WSW,246,0.0,0.0,26,0.00,,,0.00,WeatherCatV1.12B45,2013-06-12 04:56:00,
2013-06-11 22:01:00,55.9,22.5,30.41,WSW,246,0.0,0.0,27,0.00,,,0.00,WeatherCatV1.12B45,2013-06-12 05:01:00,
2013-06-11 22:06:00,55.4,22.8,30.41,SW,225,0.0,0.0,28,0.00,,,0.00,WeatherCatV1.12B45,2013-06-12 05:06:00,
2013-06-11 22:11:00,54.9,23.2,30.41,SW,226,0.0,0.0,29,0.00,,,0.00,WeatherCatV1.12B45,2013-06-12 05:11:00,
2013-06-11 22:16:00,54.1,25.7,30.41,SW,226,0.0,0.0,33,0.00,,,0.00,WeatherCatV1.12B45,2013-06-12 05:16:00,
2013-06-11 22:21:00,53.6,25.2,30.41,SW,226,0.0,0.0,33,0.00,,,0.00,WeatherCatV1.12B45,2013-06-12 05:21:00,
2013-06-11 22:26:00,53.2,26.3,30.41,SW,226,0.0,0.0,35,0.00,,,0.00,WeatherCatV1.12B45,2013-06-12 05:26:00,
2013-06-11 22:31:00,53.1,26.8,30.41,SW,226,0.0,0.0,36,0.00,,,0.00,WeatherCatV1.12B45,2013-06-12 05:31:00,
2013-06-11 22:36:00,52.9,26.0,30.41,SW,225,0.0,0.0,35,0.00,,,0.00,WeatherCatV1.12B45,2013-06-12 05:36:00,
2013-06-11 22:41:00,52.7,25.8,30.41,South,172,0.0,0.0,35,0.00,,,0.00,WeatherCatV1.12B45,2013-06-12 05:41:00,
2013-06-11 22:46:00,52.5,25.7,30.41,SW,233,2.7,2.7,35,0.00,,,0.00,WeatherCatV1.12B45,2013-06-12 05:46:00,
2013-06-11 22:51:00,52.9,24.6,30.41,SSW,200,2.7,3.6,33,0.00,,,0.00,WeatherCatV1.12B45,2013-06-12 05:51:00,
2013-06-11 22:56:00,53.2,24.2,30.41,SSW,211,0.0,0.0,32,0.00,,,0.00,WeatherCatV1.12B45,2013-06-12 05:56:00,
2013-06-11 23:01:00,53.2,24.2,30.41,SSW,211,0.0,0.0,32,0.00,,,0.00,WeatherCatV1.12B45,2013-06-12 06:01:00,
2013-06-11 23:06:00,53.1,24.7,30.41,SSW,211,0.0,0.0,33,0.00,,,0.00,WeatherCatV1.12B45,2013-06-12 06:06:00,
2013-06-11 23:11:00,53.2,24.9,30.41,South,188,0.0,4.0,33,0.00,,,0.00,WeatherCatV1.12B45,2013-06-12 06:11:00,
2013-06-11 23:16:00,53.2,24.2,30.41,South,180,0.0,3.6,32,0.00,,,0.00,WeatherCatV1.12B45,2013-06-12 06:16:00,
2013-06-11 23:21:00,53.1,24.0,30.41,SSW,202,0.0,3.1,32,0.00,,,0.00,WeatherCatV1.12B45,2013-06-12 06:21:00,
2013-06-11 23:26:00,53.2,24.2,30.41,WSW,243,0.0,4.0,32,0.00,,,0.00,WeatherCatV1.12B45,2013-06-12 06:26:00,
2013-06-11 23:31:00,53.4,24.3,30.41,South,169,2.2,4.9,32,0.00,,,0.00,WeatherCatV1.12B45,2013-06-12 06:31:00,
2013-06-11 23:36:00,53.4,24.3,30.41,South,191,0.0,3.1,32,0.00,,,0.00,WeatherCatV1.12B45,2013-06-12 06:36:00,
2013-06-11 23:41:00,53.6,22.9,30.41,WSW,251,3.1,3.1,30,0.00,,,0.00,WeatherCatV1.12B45,2013-06-12 06:41:00,
2013-06-11 23:46:00,53.6,22.9,30.41,South,183,3.1,3.1,30,0.00,,,0.00,WeatherCatV1.12B45,2013-06-12 06:46:00,
2013-06-11 23:51:00,53.4,23.6,30.41,ESE,115,2.7,4.9,31,0.00,,,0.00,WeatherCatV1.12B45,2013-06-12 06:51:00,
2013-06-11 23:56:00,52.7,22.9,30.41,SSW,198,0.0,0.0,31,0.00,,,0.00,WeatherCatV1.12B45,2013-06-12 06:56:00,